Flight Track Log - Related Links

Times and Time Zones

All times are in EDT time to prevent confusion due to time zone crossing. See the CDG4711 flight status page for this flight to view local times or setup timezone preferences in your user account.

Time Position Orientation Groundspeed Altitude Reporting Facility
EDT Latitude Longitude Course Direction KTS MPH feet Rate Location/Type
Sat 10:18:00 PM 27.2984 117.5387 226° Southwest  Level Estimated
Sat 10:19:00 PM 27.2479 117.4811 225° Southwest  Level Estimated
Sat 10:20:00 PM 27.1954 117.4214 225° Southwest  Level Estimated
Sat 10:21:00 PM 27.1430 117.3618 225° Southwest  Level Estimated
Sat 10:22:00 PM 27.0905 117.3023 225° Southwest  Level Estimated
Sat 10:23:00 PM 27.0379 117.2427 225° Southwest  Level Estimated
Sat 10:24:00 PM 26.9854 117.1833 225° Southwest  Level Estimated
Sat 10:25:00 PM 26.9328 117.1239 225° Southwest  Level Estimated
Sat 10:26:00 PM 26.8802 117.0646 225° Southwest  Level Estimated
Sat 10:27:00 PM 26.8276 117.0053 225° Southwest  Level Estimated
Sat 10:28:00 PM 26.7750 116.9460 225° Southwest  Level Estimated
Sat 10:29:00 PM 26.7223 116.8869 225° Southwest  Level Estimated
Sat 10:30:00 PM 26.6696 116.8277 225° Southwest  Level Estimated
Sat 10:31:00 PM 26.6169 116.7687 225° Southwest  Level Estimated
Sat 10:32:00 PM 26.5641 116.7097 225° Southwest  Level Estimated
Sat 10:33:00 PM 26.5114 116.6507 225° Southwest  Level Estimated
Sat 10:34:00 PM 26.4586 116.5918 225° Southwest  Level Estimated
Sat 10:35:00 PM 26.4058 116.5329 225° Southwest  Level Estimated
Sat 10:36:00 PM 26.3529 116.4742 225° Southwest  Level Estimated
Sat 10:37:00 PM 26.3001 116.4154 225° Southwest  Level Estimated
Sat 10:38:00 PM 26.2472 116.3567 225° Southwest  Level Estimated
Sat 10:39:00 PM 26.1943 116.2981 225° Southwest  Level Estimated
Sat 10:40:00 PM 26.1413 116.2395 225° Southwest  Level Estimated
Sat 10:41:00 PM 26.0884 116.1810 225° Southwest  Level Estimated
Sat 10:42:00 PM 26.0354 116.1225 225° Southwest  Level Estimated
Sat 10:43:00 PM 25.9824 116.0641 225° Southwest  Level Estimated
Sat 10:44:00 PM 25.9294 116.0057 225° Southwest  Level Estimated
Sat 10:45:00 PM 25.8763 115.9474 225° Southwest  Level Estimated
Sat 10:46:00 PM 25.8232 115.8891 225° Southwest  Level Estimated
Sat 10:47:00 PM 25.7701 115.8309 225° Southwest  Level Estimated
Sat 10:48:00 PM 25.7170 115.7727 225° Southwest  Level Estimated
Sat 10:49:00 PM 25.6639 115.7146 225° Southwest  Level Estimated
Sat 10:50:00 PM 25.6107 115.6566 225° Southwest  Level Estimated
Sat 10:51:00 PM 25.5575 115.5986 225° Southwest  Level Estimated
Sat 10:52:00 PM 25.5043 115.5406 225° Southwest  Level Estimated
Sat 10:53:00 PM 25.4511 115.4827 224° Southwest  Level Estimated
Sat 10:54:00 PM 25.3978 115.4249 224° Southwest  Level Estimated
Sat 10:55:00 PM 25.3445 115.3671 224° Southwest  Level Estimated
Sat 10:56:00 PM 25.2912 115.3093 224° Southwest  Level Estimated
Sat 10:57:00 PM 25.2379 115.2516 224° Southwest  Level Estimated
Sat 10:58:00 PM 25.1845 115.1940 224° Southwest  Level Estimated
Sat 10:59:00 PM 25.1312 115.1364 224° Southwest  Level Estimated
Sat 11:00:00 PM 25.0778 115.0788 224° Southwest  Level Estimated
Sat 11:01:00 PM 25.0244 115.0213 224° Southwest  Level Estimated
Sat 11:02:00 PM 24.9709 114.9639 224° Southwest  Level Estimated
Sat 11:03:00 PM 24.9175 114.9065 224° Southwest  Level Estimated
Sat 11:04:00 PM 24.8640 114.8491 224° Southwest  Level Estimated
Sat 11:05:00 PM 24.8105 114.7918 224° Southwest  Level Estimated
Sat 11:06:00 PM 24.7570 114.7346 224° Southwest  Level Estimated
Sat 11:07:00 PM 24.7034 114.6774 224° Southwest  Level Estimated
Sat 11:08:00 PM 24.6499 114.6202 224° Southwest  Level Estimated
Sat 11:09:00 PM 24.5963 114.5631 224° Southwest  Level Estimated
Sat 11:10:00 PM 24.5427 114.5061 224° Southwest  Level Estimated
Sat 11:11:00 PM 24.4890 114.4491 224° Southwest  Level Estimated
Sat 11:12:00 PM 24.4354 114.3921 224° Southwest  Level Estimated
Sat 11:13:00 PM 24.3817 114.3352 224° Southwest  Level Estimated
Sat 11:14:00 PM 24.3280 114.2784 224° Southwest  Level Estimated
Sat 11:15:00 PM 24.2743 114.2215 224° Southwest  Level Estimated
Sat 11:16:00 PM 24.2205 114.1648 224° Southwest  Level Estimated
Sat 11:17:00 PM 24.1668 114.1081 224° Southwest  Level Estimated
Sat 11:18:00 PM 24.1130 114.0514 224° Southwest  Level Estimated
Sat 11:19:00 PM 24.0592 113.9948 224° Southwest  Level Estimated
Sat 11:20:00 PM 24.0054 113.9382 224° Southwest  Level Estimated
Sat 11:21:00 PM 23.9515 113.8817 224° Southwest  Level Estimated
Sat 11:22:00 PM 23.8976 113.8252 224° Southwest  Level Estimated
Sat 11:23:00 PM 23.8438 113.7688 224° Southwest  Level Estimated
Sat 11:24:00 PM 23.7899 113.7124 224° Southwest  Level Estimated
Sat 11:25:00 PM 23.7359 113.6561 224° Southwest  Level Estimated
Sat 11:26:00 PM 23.6820 113.5998 224° Southwest  Level Estimated
Sat 11:27:00 PM 23.6280 113.5435 224° Southwest  Level Estimated
Sat 11:28:00 PM 23.5740 113.4873 224° Southwest  Level Estimated
Sat 11:29:00 PM 23.5200 113.4312 224° Southwest  Level Estimated
Sat 11:30:00 PM 23.4660 113.3751 224° Southwest  Level Estimated
Sat 11:31:00 PM 23.4119 113.3190 224° Southwest  Level Estimated
Sat 11:32:00 PM 23.3924 113.2988 224° Southwest  Level Estimated
Sat 11:33:00 PM 23.3924 113.2988 North  Level Estimated
Sat 11:34:00 PM 23.3924 113.2988 North  Level Estimated
Sat 11:35:00 PM 23.3924 113.2988 North  Level Estimated
Sat 11:36:00 PM 23.3924 113.2988 North  Level Estimated
Sat 11:37:00 PM 23.3924 113.2988 North  Level Estimated
Sat 11:38:00 PM 23.3924 113.2988 North  Level Estimated
Sat 11:39:00 PM 23.3924 113.2988 North  Level Estimated
Sat 11:40:00 PM 23.3924 113.2988 North  Level Estimated
Sat 11:41:00 PM 23.3924 113.2988 North  Level Estimated
Sat 11:42:00 PM 23.3924 113.2988 North  Level Estimated
Sat 11:43:00 PM 23.3924 113.2988 North  Level Estimated
Sat 11:44:00 PM 23.3924 113.2988 North  Level Estimated
Sat 11:45:00 PM 23.3924 113.2988 North  Level Estimated
Sat 11:46:00 PM 23.3924 113.2988 North  Level Estimated
Sat 11:47:00 PM 23.3924 113.2988 North  Level Estimated

Login

Don't have an account? Register now (free) for customized features, flight alerts, and more!